sensor_id;sensor_type;location;lat;lon;timestamp;temperature;humidity
72936;DHT22;61085;48.804;9.228;2023-05-10T00:00:53;16.10;99.90
72936;DHT22;61085;48.804;9.228;2023-05-10T00:03:19;16.10;99.90
72936;DHT22;61085;48.804;9.228;2023-05-10T00:05:45;16.10;99.90
72936;DHT22;61085;48.804;9.228;2023-05-10T00:08:10;16.00;99.90
72936;DHT22;61085;48.804;9.228;2023-05-10T00:10:36;16.00;99.90
72936;DHT22;61085;48.804;9.228;2023-05-10T00:13:03;16.00;99.90
72936;DHT22;61085;48.804;9.228;2023-05-10T00:15:28;15.90;99.90
72936;DHT22;61085;48.804;9.228;2023-05-10T00:17:56;15.90;99.90
72936;DHT22;61085;48.804;9.228;2023-05-10T00:20:22;15.80;99.90
72936;DHT22;61085;48.804;9.228;2023-05-10T00:22:47;15.80;99.90
72936;DHT22;61085;48.804;9.228;2023-05-10T00:25:13;15.80;99.90
72936;DHT22;61085;48.804;9.228;2023-05-10T00:27:38;15.70;99.90
72936;DHT22;61085;48.804;9.228;2023-05-10T00:30:04;15.70;99.90
72936;DHT22;61085;48.804;9.228;2023-05-10T00:32:30;15.70;99.90
72936;DHT22;61085;48.804;9.228;2023-05-10T00:34:56;15.70;99.90
72936;DHT22;61085;48.804;9.228;2023-05-10T00:37:21;15.60;99.90
72936;DHT22;61085;48.804;9.228;2023-05-10T00:39:47;15.60;99.90
72936;DHT22;61085;48.804;9.228;2023-05-10T00:42:12;15.50;99.90
72936;DHT22;61085;48.804;9.228;2023-05-10T00:44:38;15.40;99.90
72936;DHT22;61085;48.804;9.228;2023-05-10T00:47:03;15.40;99.90
72936;DHT22;61085;48.804;9.228;2023-05-10T00:49:29;15.40;99.90
72936;DHT22;61085;48.804;9.228;2023-05-10T00:51:55;15.40;99.90
72936;DHT22;61085;48.804;9.228;2023-05-10T00:54:21;15.40;99.90
72936;DHT22;61085;48.804;9.228;2023-05-10T00:56:46;15.30;99.90
72936;DHT22;61085;48.804;9.228;2023-05-10T00:59:17;15.30;99.90
72936;DHT22;61085;48.804;9.228;2023-05-10T01:01:44;15.30;99.90
72936;DHT22;61085;48.804;9.228;2023-05-10T01:04:11;15.30;99.90
72936;DHT22;61085;48.804;9.228;2023-05-10T01:06:38;15.20;99.90
72936;DHT22;61085;48.804;9.228;2023-05-10T01:12:51;15.10;99.90
72936;DHT22;61085;48.804;9.228;2023-05-10T01:15:17;15.20;99.90
72936;DHT22;61085;48.804;9.228;2023-05-10T01:17:44;15.10;99.90
72936;DHT22;61085;48.804;9.228;2023-05-10T01:20:12;15.10;99.90
72936;DHT22;61085;48.804;9.228;2023-05-10T01:25:50;15.00;99.90
72936;DHT22;61085;48.804;9.228;2023-05-10T01:39:11;14.80;99.90
72936;DHT22;61085;48.804;9.228;2023-05-10T01:41:51;14.80;99.90
72936;DHT22;61085;48.804;9.228;2023-05-10T01:47:15;14.80;99.90
72936;DHT22;61085;48.804;9.228;2023-05-10T01:49:43;14.80;99.90
72936;DHT22;61085;48.804;9.228;2023-05-10T01:52:14;14.90;99.90
72936;DHT22;61085;48.804;9.228;2023-05-10T01:54:49;14.90;99.90
72936;DHT22;61085;48.804;9.228;2023-05-10T01:57:18;14.80;99.90
72936;DHT22;61085;48.804;9.228;2023-05-10T01:59:46;15.00;99.90
72936;DHT22;61085;48.804;9.228;2023-05-10T02:02:15;14.90;99.90
72936;DHT22;61085;48.804;9.228;2023-05-10T02:04:42;14.90;99.90
72936;DHT22;61085;48.804;9.228;2023-05-10T02:07:08;14.90;99.90
72936;DHT22;61085;48.804;9.228;2023-05-10T02:09:34;14.80;99.90
72936;DHT22;61085;48.804;9.228;2023-05-10T02:12:02;14.90;99.90
72936;DHT22;61085;48.804;9.228;2023-05-10T02:14:32;14.90;99.90
72936;DHT22;61085;48.804;9.228;2023-05-10T02:16:59;14.80;99.90
72936;DHT22;61085;48.804;9.228;2023-05-10T02:19:27;14.80;99.90
72936;DHT22;61085;48.804;9.228;2023-05-10T02:21:55;14.80;99.90
72936;DHT22;61085;48.804;9.228;2023-05-10T02:24:24;14.80;99.90
72936;DHT22;61085;48.804;9.228;2023-05-10T02:26:51;14.70;99.90
72936;DHT22;61085;48.804;9.228;2023-05-10T02:29:19;14.70;99.90
72936;DHT22;61085;48.804;9.228;2023-05-10T02:31:46;14.70;99.90
72936;DHT22;61085;48.804;9.228;2023-05-10T02:34:12;14.70;99.90
72936;DHT22;61085;48.804;9.228;2023-05-10T02:36:39;14.70;99.90
72936;DHT22;61085;48.804;9.228;2023-05-10T02:39:06;14.70;99.90
72936;DHT22;61085;48.804;9.228;2023-05-10T02:41:35;14.70;99.90
72936;DHT22;61085;48.804;9.228;2023-05-10T02:44:02;14.70;99.90
72936;DHT22;61085;48.804;9.228;2023-05-10T02:46:28;14.80;99.90
72936;DHT22;61085;48.804;9.228;2023-05-10T02:48:54;14.70;99.90
72936;DHT22;61085;48.804;9.228;2023-05-10T02:51:21;14.70;99.90
72936;DHT22;61085;48.804;9.228;2023-05-10T02:53:50;14.70;99.90
72936;DHT22;61085;48.804;9.228;2023-05-10T02:56:36;14.70;99.90
72936;DHT22;61085;48.804;9.228;2023-05-10T02:59:06;14.80;99.90
72936;DHT22;61085;48.804;9.228;2023-05-10T03:01:32;14.80;99.90
72936;DHT22;61085;48.804;9.228;2023-05-10T03:03:57;14.80;99.90
72936;DHT22;61085;48.804;9.228;2023-05-10T03:06:23;14.80;99.90
72936;DHT22;61085;48.804;9.228;2023-05-10T03:08:49;14.80;99.90
72936;DHT22;61085;48.804;9.228;2023-05-10T03:17:32;14.80;99.90
72936;DHT22;61085;48.804;9.228;2023-05-10T03:20:08;14.80;99.90
72936;DHT22;61085;48.804;9.228;2023-05-10T03:22:40;14.90;99.90
72936;DHT22;61085;48.804;9.228;2023-05-10T03:25:10;14.80;99.90
72936;DHT22;61085;48.804;9.228;2023-05-10T03:27:40;14.80;99.90
72936;DHT22;61085;48.804;9.228;2023-05-10T03:30:08;14.80;99.90
72936;DHT22;61085;48.804;9.228;2023-05-10T03:32:34;14.80;99.90
72936;DHT22;61085;48.804;9.228;2023-05-10T03:35:00;14.90;99.90
72936;DHT22;61085;48.804;9.228;2023-05-10T03:37:25;14.80;99.90
72936;DHT22;61085;48.804;9.228;2023-05-10T03:39:51;14.70;99.90
72936;DHT22;61085;48.804;9.228;2023-05-10T03:42:17;14.80;99.90
72936;DHT22;61085;48.804;9.228;2023-05-10T03:44:43;14.80;99.90
72936;DHT22;61085;48.804;9.228;2023-05-10T03:47:08;14.80;99.90
72936;DHT22;61085;48.804;9.228;2023-05-10T03:49:34;14.80;99.90
72936;DHT22;61085;48.804;9.228;2023-05-10T03:52:00;14.80;99.90
72936;DHT22;61085;48.804;9.228;2023-05-10T03:54:25;14.80;99.90
72936;DHT22;61085;48.804;9.228;2023-05-10T03:56:51;14.80;99.90
72936;DHT22;61085;48.804;9.228;2023-05-10T03:59:17;14.80;99.90
72936;DHT22;61085;48.804;9.228;2023-05-10T04:01:42;14.80;99.90
72936;DHT22;61085;48.804;9.228;2023-05-10T04:04:08;14.80;99.90
72936;DHT22;61085;48.804;9.228;2023-05-10T04:06:33;14.80;99.90
72936;DHT22;61085;48.804;9.228;2023-05-10T04:08:59;14.70;99.90
72936;DHT22;61085;48.804;9.228;2023-05-10T04:11:29;14.80;99.90
72936;DHT22;61085;48.804;9.228;2023-05-10T04:13:54;14.80;99.90
72936;DHT22;61085;48.804;9.228;2023-05-10T04:16:20;14.90;99.90
72936;DHT22;61085;48.804;9.228;2023-05-10T04:18:45;15.00;99.90
72936;DHT22;61085;48.804;9.228;2023-05-10T04:21:14;14.80;99.90
72936;DHT22;61085;48.804;9.228;2023-05-10T04:23:40;15.00;99.90
72936;DHT22;61085;48.804;9.228;2023-05-10T04:26:06;15.00;99.90
72936;DHT22;61085;48.804;9.228;2023-05-10T04:28:31;15.00;99.90
72936;DHT22;61085;48.804;9.228;2023-05-10T04:31:04;15.00;99.90
72936;DHT22;61085;48.804;9.228;2023-05-10T04:33:30;15.10;99.90
72936;DHT22;61085;48.804;9.228;2023-05-10T04:35:56;15.10;99.90
72936;DHT22;61085;48.804;9.228;2023-05-10T04:38:24;15.10;99.90
72936;DHT22;61085;48.804;9.228;2023-05-10T04:40:50;15.20;99.90
72936;DHT22;61085;48.804;9.228;2023-05-10T04:43:15;15.30;99.90
72936;DHT22;61085;48.804;9.228;2023-05-10T04:45:41;15.30;99.90
72936;DHT22;61085;48.804;9.228;2023-05-10T04:48:06;15.30;99.90
72936;DHT22;61085;48.804;9.228;2023-05-10T04:50:33;15.20;99.90
72936;DHT22;61085;48.804;9.228;2023-05-10T04:52:58;15.20;99.90
72936;DHT22;61085;48.804;9.228;2023-05-10T04:55:24;15.20;99.90
72936;DHT22;61085;48.804;9.228;2023-05-10T04:57:50;15.30;99.90
72936;DHT22;61085;48.804;9.228;2023-05-10T05:00:16;15.40;99.90
72936;DHT22;61085;48.804;9.228;2023-05-10T05:02:45;15.40;99.90
72936;DHT22;61085;48.804;9.228;2023-05-10T05:05:11;15.40;99.90
72936;DHT22;61085;48.804;9.228;2023-05-10T05:07:37;15.40;99.90
72936;DHT22;61085;48.804;9.228;2023-05-10T05:10:05;15.40;99.90
72936;DHT22;61085;48.804;9.228;2023-05-10T05:12:31;15.50;99.90
72936;DHT22;61085;48.804;9.228;2023-05-10T05:14:56;15.70;99.90
72936;DHT22;61085;48.804;9.228;2023-05-10T05:17:22;16.00;99.90
72936;DHT22;61085;48.804;9.228;2023-05-10T05:19:47;16.20;99.90
72936;DHT22;61085;48.804;9.228;2023-05-10T05:22:13;16.30;99.90
72936;DHT22;61085;48.804;9.228;2023-05-10T05:24:38;16.50;99.90
72936;DHT22;61085;48.804;9.228;2023-05-10T05:27:04;16.40;99.90
72936;DHT22;61085;48.804;9.228;2023-05-10T05:29:30;16.40;99.90
72936;DHT22;61085;48.804;9.228;2023-05-10T05:31:55;16.50;99.90
72936;DHT22;61085;48.804;9.228;2023-05-10T05:34:21;16.30;99.90
72936;DHT22;61085;48.804;9.228;2023-05-10T05:36:47;16.20;99.90
72936;DHT22;61085;48.804;9.228;2023-05-10T05:39:13;16.20;99.90
72936;DHT22;61085;48.804;9.228;2023-05-10T05:41:39;16.30;99.90
72936;DHT22;61085;48.804;9.228;2023-05-10T05:44:04;16.20;99.90
72936;DHT22;61085;48.804;9.228;2023-05-10T05:46:30;16.20;99.90
72936;DHT22;61085;48.804;9.228;2023-05-10T05:48:56;16.20;99.90
72936;DHT22;61085;48.804;9.228;2023-05-10T05:51:22;16.20;99.90
72936;DHT22;61085;48.804;9.228;2023-05-10T05:53:47;16.30;99.90
72936;DHT22;61085;48.804;9.228;2023-05-10T05:56:13;16.40;99.90
72936;DHT22;61085;48.804;9.228;2023-05-10T05:58:39;16.40;99.90
72936;DHT22;61085;48.804;9.228;2023-05-10T06:01:04;16.80;99.90
72936;DHT22;61085;48.804;9.228;2023-05-10T06:03:30;16.80;99.90
72936;DHT22;61085;48.804;9.228;2023-05-10T06:05:55;16.70;99.90
72936;DHT22;61085;48.804;9.228;2023-05-10T06:08:21;16.80;99.90
72936;DHT22;61085;48.804;9.228;2023-05-10T06:10:47;16.80;99.90
72936;DHT22;61085;48.804;9.228;2023-05-10T06:13:12;16.80;99.90
72936;DHT22;61085;48.804;9.228;2023-05-10T06:15:38;16.90;99.90
72936;DHT22;61085;48.804;9.228;2023-05-10T06:18:04;16.60;99.90
72936;DHT22;61085;48.804;9.228;2023-05-10T06:20:29;16.60;99.90
72936;DHT22;61085;48.804;9.228;2023-05-10T06:22:57;16.60;99.90
72936;DHT22;61085;48.804;9.228;2023-05-10T06:25:23;16.40;99.90
72936;DHT22;61085;48.804;9.228;2023-05-10T06:27:48;16.40;99.90
72936;DHT22;61085;48.804;9.228;2023-05-10T06:30:14;16.50;99.90
72936;DHT22;61085;48.804;9.228;2023-05-10T06:32:40;16.50;99.90
72936;DHT22;61085;48.804;9.228;2023-05-10T06:35:06;16.50;99.90
72936;DHT22;61085;48.804;9.228;2023-05-10T06:37:33;16.60;99.90
72936;DHT22;61085;48.804;9.228;2023-05-10T06:39:59;16.60;99.90
72936;DHT22;61085;48.804;9.228;2023-05-10T06:42:25;16.60;99.90
72936;DHT22;61085;48.804;9.228;2023-05-10T06:44:52;16.50;99.90
72936;DHT22;61085;48.804;9.228;2023-05-10T06:47:18;16.40;99.90
72936;DHT22;61085;48.804;9.228;2023-05-10T06:49:43;16.40;99.90
72936;DHT22;61085;48.804;9.228;2023-05-10T06:52:09;16.50;99.90
72936;DHT22;61085;48.804;9.228;2023-05-10T06:54:35;16.40;99.90
72936;DHT22;61085;48.804;9.228;2023-05-10T06:57:00;16.40;99.90
72936;DHT22;61085;48.804;9.228;2023-05-10T06:59:28;16.60;99.90
72936;DHT22;61085;48.804;9.228;2023-05-10T07:01:53;16.60;99.90
72936;DHT22;61085;48.804;9.228;2023-05-10T07:04:19;16.40;99.90
72936;DHT22;61085;48.804;9.228;2023-05-10T07:06:45;16.50;99.90
72936;DHT22;61085;48.804;9.228;2023-05-10T07:09:11;16.60;99.90
72936;DHT22;61085;48.804;9.228;2023-05-10T07:11:38;16.60;99.90
72936;DHT22;61085;48.804;9.228;2023-05-10T07:14:04;16.70;99.90
72936;DHT22;61085;48.804;9.228;2023-05-10T07:16:30;16.70;99.90
72936;DHT22;61085;48.804;9.228;2023-05-10T07:18:56;16.70;99.90
72936;DHT22;61085;48.804;9.228;2023-05-10T07:21:21;16.80;99.90
72936;DHT22;61085;48.804;9.228;2023-05-10T07:23:49;16.80;99.90
72936;DHT22;61085;48.804;9.228;2023-05-10T07:26:15;16.70;99.90
72936;DHT22;61085;48.804;9.228;2023-05-10T07:28:41;17.00;99.90
72936;DHT22;61085;48.804;9.228;2023-05-10T07:31:07;17.10;99.90
72936;DHT22;61085;48.804;9.228;2023-05-10T07:33:32;17.20;99.90
72936;DHT22;61085;48.804;9.228;2023-05-10T07:35:58;17.10;99.90
72936;DHT22;61085;48.804;9.228;2023-05-10T07:38:23;17.40;99.90
72936;DHT22;61085;48.804;9.228;2023-05-10T07:40:49;17.60;99.90
72936;DHT22;61085;48.804;9.228;2023-05-10T07:43:14;17.70;99.90
72936;DHT22;61085;48.804;9.228;2023-05-10T07:45:40;17.70;99.90
72936;DHT22;61085;48.804;9.228;2023-05-10T07:48:05;17.80;99.90
72936;DHT22;61085;48.804;9.228;2023-05-10T07:50:31;17.70;99.90
72936;DHT22;61085;48.804;9.228;2023-05-10T07:52:57;17.80;99.90
72936;DHT22;61085;48.804;9.228;2023-05-10T07:55:22;18.00;99.90
72936;DHT22;61085;48.804;9.228;2023-05-10T07:57:48;18.10;99.90
72936;DHT22;61085;48.804;9.228;2023-05-10T08:00:17;18.10;99.90
72936;DHT22;61085;48.804;9.228;2023-05-10T08:02:43;17.90;99.90
72936;DHT22;61085;48.804;9.228;2023-05-10T08:05:09;17.90;99.90
72936;DHT22;61085;48.804;9.228;2023-05-10T08:07:35;17.70;99.90
72936;DHT22;61085;48.804;9.228;2023-05-10T08:10:01;17.70;99.90
72936;DHT22;61085;48.804;9.228;2023-05-10T08:12:26;17.80;99.90
72936;DHT22;61085;48.804;9.228;2023-05-10T08:14:52;17.80;99.90
72936;DHT22;61085;48.804;9.228;2023-05-10T08:17:17;17.70;99.90
72936;DHT22;61085;48.804;9.228;2023-05-10T08:19:43;17.70;99.90
72936;DHT22;61085;48.804;9.228;2023-05-10T08:22:08;17.60;99.90
72936;DHT22;61085;48.804;9.228;2023-05-10T08:24:34;17.70;99.90
72936;DHT22;61085;48.804;9.228;2023-05-10T08:27:04;17.60;99.90
72936;DHT22;61085;48.804;9.228;2023-05-10T08:29:30;17.50;99.90
72936;DHT22;61085;48.804;9.228;2023-05-10T08:31:55;17.40;99.90
72936;DHT22;61085;48.804;9.228;2023-05-10T08:34:21;17.50;99.90
72936;DHT22;61085;48.804;9.228;2023-05-10T08:36:47;17.40;99.90
72936;DHT22;61085;48.804;9.228;2023-05-10T08:39:12;17.50;99.90
72936;DHT22;61085;48.804;9.228;2023-05-10T08:41:39;17.40;99.90
72936;DHT22;61085;48.804;9.228;2023-05-10T08:44:07;17.40;99.90
72936;DHT22;61085;48.804;9.228;2023-05-10T08:46:33;17.50;99.90
72936;DHT22;61085;48.804;9.228;2023-05-10T08:49:04;17.50;99.90
72936;DHT22;61085;48.804;9.228;2023-05-10T08:51:35;17.50;99.90
72936;DHT22;61085;48.804;9.228;2023-05-10T08:54:02;17.50;99.90
72936;DHT22;61085;48.804;9.228;2023-05-10T08:56:29;17.50;99.90
72936;DHT22;61085;48.804;9.228;2023-05-10T08:58:55;17.50;99.90
72936;DHT22;61085;48.804;9.228;2023-05-10T09:01:21;17.60;99.90
72936;DHT22;61085;48.804;9.228;2023-05-10T09:03:47;17.60;99.90
72936;DHT22;61085;48.804;9.228;2023-05-10T09:06:13;17.70;99.90
72936;DHT22;61085;48.804;9.228;2023-05-10T09:08:41;17.90;99.90
72936;DHT22;61085;48.804;9.228;2023-05-10T09:11:08;18.00;99.90
72936;DHT22;61085;48.804;9.228;2023-05-10T09:13:35;18.20;99.90
72936;DHT22;61085;48.804;9.228;2023-05-10T09:16:02;18.20;99.90
72936;DHT22;61085;48.804;9.228;2023-05-10T09:18:28;18.30;99.90
72936;DHT22;61085;48.804;9.228;2023-05-10T09:20:54;18.40;99.90
72936;DHT22;61085;48.804;9.228;2023-05-10T09:23:20;18.50;99.90
72936;DHT22;61085;48.804;9.228;2023-05-10T09:25:46;18.60;99.90
72936;DHT22;61085;48.804;9.228;2023-05-10T09:28:12;18.80;99.90
72936;DHT22;61085;48.804;9.228;2023-05-10T09:30:38;19.00;99.90
72936;DHT22;61085;48.804;9.228;2023-05-10T09:33:04;19.10;99.90
72936;DHT22;61085;48.804;9.228;2023-05-10T09:35:31;19.20;99.90
72936;DHT22;61085;48.804;9.228;2023-05-10T09:38:01;18.80;99.90
72936;DHT22;61085;48.804;9.228;2023-05-10T09:40:29;18.90;99.90
72936;DHT22;61085;48.804;9.228;2023-05-10T09:43:00;18.80;99.90
72936;DHT22;61085;48.804;9.228;2023-05-10T09:45:28;18.80;99.90
72936;DHT22;61085;48.804;9.228;2023-05-10T09:47:54;18.80;99.90
72936;DHT22;61085;48.804;9.228;2023-05-10T09:50:21;18.90;99.90
72936;DHT22;61085;48.804;9.228;2023-05-10T09:52:53;18.90;99.90
72936;DHT22;61085;48.804;9.228;2023-05-10T09:55:21;19.00;99.90
72936;DHT22;61085;48.804;9.228;2023-05-10T09:57:48;19.10;99.90
72936;DHT22;61085;48.804;9.228;2023-05-10T10:00:20;19.10;99.90
72936;DHT22;61085;48.804;9.228;2023-05-10T10:02:48;19.00;99.90
72936;DHT22;61085;48.804;9.228;2023-05-10T10:05:19;18.80;99.90
72936;DHT22;61085;48.804;9.228;2023-05-10T10:07:45;18.70;99.90
72936;DHT22;61085;48.804;9.228;2023-05-10T10:10:10;18.60;99.90
72936;DHT22;61085;48.804;9.228;2023-05-10T10:12:39;18.80;99.90
72936;DHT22;61085;48.804;9.228;2023-05-10T10:15:05;18.80;99.90
72936;DHT22;61085;48.804;9.228;2023-05-10T10:17:32;18.80;99.90
72936;DHT22;61085;48.804;9.228;2023-05-10T10:20:02;19.00;99.90
72936;DHT22;61085;48.804;9.228;2023-05-10T10:22:28;19.00;99.90
72936;DHT22;61085;48.804;9.228;2023-05-10T10:24:54;19.00;99.90
72936;DHT22;61085;48.804;9.228;2023-05-10T10:27:24;18.90;99.90
72936;DHT22;61085;48.804;9.228;2023-05-10T10:32:37;18.70;99.90
72936;DHT22;61085;48.804;9.228;2023-05-10T10:35:08;18.60;99.90
72936;DHT22;61085;48.804;9.228;2023-05-10T10:37:45;18.40;99.90
72936;DHT22;61085;48.804;9.228;2023-05-10T10:40:32;18.60;99.90
72936;DHT22;61085;48.804;9.228;2023-05-10T10:43:20;18.80;99.90
72936;DHT22;61085;48.804;9.228;2023-05-10T10:46:08;19.00;99.90
72936;DHT22;61085;48.804;9.228;2023-05-10T10:48:33;19.30;99.90
72936;DHT22;61085;48.804;9.228;2023-05-10T10:50:58;19.40;99.90
72936;DHT22;61085;48.804;9.228;2023-05-10T10:53:29;19.50;99.90
72936;DHT22;61085;48.804;9.228;2023-05-10T10:56:08;19.70;99.90
72936;DHT22;61085;48.804;9.228;2023-05-10T10:58:36;19.80;99.90
72936;DHT22;61085;48.804;9.228;2023-05-10T11:01:11;19.70;99.90
72936;DHT22;61085;48.804;9.228;2023-05-10T11:03:37;19.70;99.90
72936;DHT22;61085;48.804;9.228;2023-05-10T11:06:03;19.50;99.90
72936;DHT22;61085;48.804;9.228;2023-05-10T11:08:33;19.40;99.90
72936;DHT22;61085;48.804;9.228;2023-05-10T11:13:37;19.20;99.90
72936;DHT22;61085;48.804;9.228;2023-05-10T11:16:29;19.10;99.90
72936;DHT22;61085;48.804;9.228;2023-05-10T11:19:11;19.10;97.00
72936;DHT22;61085;48.804;9.228;2023-05-10T11:21:51;18.80;96.40
72936;DHT22;61085;48.804;9.228;2023-05-10T11:24:19;18.40;97.20
72936;DHT22;61085;48.804;9.228;2023-05-10T11:26:45;18.40;98.40
72936;DHT22;61085;48.804;9.228;2023-05-10T11:29:13;18.10;99.90
72936;DHT22;61085;48.804;9.228;2023-05-10T11:31:46;18.40;99.90
72936;DHT22;61085;48.804;9.228;2023-05-10T11:34:25;18.30;99.20
72936;DHT22;61085;48.804;9.228;2023-05-10T11:36:52;18.20;98.50
72936;DHT22;61085;48.804;9.228;2023-05-10T11:39:19;18.30;99.80
72936;DHT22;61085;48.804;9.228;2023-05-10T11:41:48;18.40;99.10
72936;DHT22;61085;48.804;9.228;2023-05-10T11:44:14;18.50;99.20
72936;DHT22;61085;48.804;9.228;2023-05-10T11:46:40;18.30;98.60
72936;DHT22;61085;48.804;9.228;2023-05-10T11:49:07;18.40;98.80
72936;DHT22;61085;48.804;9.228;2023-05-10T11:51:36;18.60;99.20
72936;DHT22;61085;48.804;9.228;2023-05-10T11:54:06;18.40;99.20
72936;DHT22;61085;48.804;9.228;2023-05-10T11:56:33;18.30;98.30
72936;DHT22;61085;48.804;9.228;2023-05-10T11:59:00;18.30;98.10
72936;DHT22;61085;48.804;9.228;2023-05-10T12:01:28;18.50;98.00
72936;DHT22;61085;48.804;9.228;2023-05-10T12:03:55;18.20;97.80
72936;DHT22;61085;48.804;9.228;2023-05-10T12:06:27;18.20;98.00
72936;DHT22;61085;48.804;9.228;2023-05-10T12:08:52;18.10;98.30
72936;DHT22;61085;48.804;9.228;2023-05-10T12:11:19;18.10;98.60
72936;DHT22;61085;48.804;9.228;2023-05-10T12:13:46;18.00;98.80
72936;DHT22;61085;48.804;9.228;2023-05-10T12:16:23;18.00;99.90
72936;DHT22;61085;48.804;9.228;2023-05-10T12:18:58;17.90;99.90
72936;DHT22;61085;48.804;9.228;2023-05-10T12:21:25;17.90;99.90
72936;DHT22;61085;48.804;9.228;2023-05-10T12:23:54;18.00;99.90
72936;DHT22;61085;48.804;9.228;2023-05-10T12:28:52;17.90;99.30
72936;DHT22;61085;48.804;9.228;2023-05-10T12:31:18;17.80;97.90
72936;DHT22;61085;48.804;9.228;2023-05-10T12:33:44;17.80;98.70
72936;DHT22;61085;48.804;9.228;2023-05-10T12:36:13;17.90;99.70
72936;DHT22;61085;48.804;9.228;2023-05-10T12:38:41;18.00;99.40
72936;DHT22;61085;48.804;9.228;2023-05-10T12:41:26;18.30;99.90
72936;DHT22;61085;48.804;9.228;2023-05-10T12:43:52;18.40;98.70
72936;DHT22;61085;48.804;9.228;2023-05-10T12:46:17;18.50;99.90
72936;DHT22;61085;48.804;9.228;2023-05-10T12:48:44;18.50;98.50
72936;DHT22;61085;48.804;9.228;2023-05-10T12:51:11;18.50;98.60
72936;DHT22;61085;48.804;9.228;2023-05-10T12:53:39;18.60;97.30
72936;DHT22;61085;48.804;9.228;2023-05-10T12:56:05;18.60;96.50
72936;DHT22;61085;48.804;9.228;2023-05-10T12:58:31;18.60;95.60
72936;DHT22;61085;48.804;9.228;2023-05-10T13:00:57;18.50;94.00
72936;DHT22;61085;48.804;9.228;2023-05-10T13:03:23;18.50;94.40
72936;DHT22;61085;48.804;9.228;2023-05-10T13:05:49;18.50;96.00
72936;DHT22;61085;48.804;9.228;2023-05-10T13:08:14;18.40;95.20
72936;DHT22;61085;48.804;9.228;2023-05-10T13:10:40;18.40;95.90
72936;DHT22;61085;48.804;9.228;2023-05-10T13:13:06;18.40;96.20
72936;DHT22;61085;48.804;9.228;2023-05-10T13:15:32;18.30;95.70
72936;DHT22;61085;48.804;9.228;2023-05-10T13:17:58;18.20;96.20
72936;DHT22;61085;48.804;9.228;2023-05-10T13:20:25;18.20;96.70
72936;DHT22;61085;48.804;9.228;2023-05-10T13:22:51;18.20;95.90
72936;DHT22;61085;48.804;9.228;2023-05-10T13:25:16;18.10;96.50
72936;DHT22;61085;48.804;9.228;2023-05-10T13:27:42;18.10;96.40
72936;DHT22;61085;48.804;9.228;2023-05-10T13:30:09;18.00;96.70
72936;DHT22;61085;48.804;9.228;2023-05-10T13:32:35;18.00;97.00
72936;DHT22;61085;48.804;9.228;2023-05-10T13:35:01;18.00;97.80
72936;DHT22;61085;48.804;9.228;2023-05-10T13:37:28;18.00;96.90
72936;DHT22;61085;48.804;9.228;2023-05-10T13:39:55;18.00;97.10
72936;DHT22;61085;48.804;9.228;2023-05-10T13:42:22;18.10;96.60
72936;DHT22;61085;48.804;9.228;2023-05-10T13:44:48;18.20;97.60
72936;DHT22;61085;48.804;9.228;2023-05-10T13:47:13;18.30;97.70
72936;DHT22;61085;48.804;9.228;2023-05-10T13:49:39;18.40;97.20
72936;DHT22;61085;48.804;9.228;2023-05-10T13:52:05;18.70;96.30
72936;DHT22;61085;48.804;9.228;2023-05-10T13:54:34;18.60;95.80
72936;DHT22;61085;48.804;9.228;2023-05-10T13:57:01;18.90;95.80
72936;DHT22;61085;48.804;9.228;2023-05-10T13:59:26;18.90;95.10
72936;DHT22;61085;48.804;9.228;2023-05-10T14:01:52;18.80;95.50
72936;DHT22;61085;48.804;9.228;2023-05-10T14:04:18;18.80;95.50
72936;DHT22;61085;48.804;9.228;2023-05-10T14:06:43;18.80;95.30
72936;DHT22;61085;48.804;9.228;2023-05-10T14:09:09;18.70;95.60
72936;DHT22;61085;48.804;9.228;2023-05-10T14:11:35;18.60;94.90
72936;DHT22;61085;48.804;9.228;2023-05-10T14:14:00;18.80;94.20
72936;DHT22;61085;48.804;9.228;2023-05-10T14:16:26;18.60;93.60
72936;DHT22;61085;48.804;9.228;2023-05-10T14:18:52;18.60;94.80
72936;DHT22;61085;48.804;9.228;2023-05-10T14:21:18;18.70;94.30
72936;DHT22;61085;48.804;9.228;2023-05-10T14:23:43;18.70;91.10
72936;DHT22;61085;48.804;9.228;2023-05-10T14:26:09;18.70;90.70
72936;DHT22;61085;48.804;9.228;2023-05-10T14:28:35;18.80;89.20
72936;DHT22;61085;48.804;9.228;2023-05-10T14:31:00;18.80;89.30
72936;DHT22;61085;48.804;9.228;2023-05-10T14:33:26;18.60;88.80
72936;DHT22;61085;48.804;9.228;2023-05-10T14:35:54;18.50;90.60
72936;DHT22;61085;48.804;9.228;2023-05-10T14:38:21;18.80;90.70
72936;DHT22;61085;48.804;9.228;2023-05-10T14:40:47;18.80;89.10
72936;DHT22;61085;48.804;9.228;2023-05-10T14:43:13;18.90;85.80
72936;DHT22;61085;48.804;9.228;2023-05-10T14:45:38;18.70;86.80
72936;DHT22;61085;48.804;9.228;2023-05-10T14:48:04;18.80;85.30
72936;DHT22;61085;48.804;9.228;2023-05-10T14:50:36;18.80;84.30
72936;DHT22;61085;48.804;9.228;2023-05-10T14:53:02;18.80;87.20
72936;DHT22;61085;48.804;9.228;2023-05-10T14:55:27;18.80;86.30
72936;DHT22;61085;48.804;9.228;2023-05-10T14:57:53;18.90;88.60
72936;DHT22;61085;48.804;9.228;2023-05-10T15:00:19;18.80;85.10
72936;DHT22;61085;48.804;9.228;2023-05-10T15:02:45;18.70;88.10
72936;DHT22;61085;48.804;9.228;2023-05-10T15:05:11;18.80;90.30
72936;DHT22;61085;48.804;9.228;2023-05-10T15:07:36;18.90;87.30
72936;DHT22;61085;48.804;9.228;2023-05-10T15:10:02;18.80;88.00
72936;DHT22;61085;48.804;9.228;2023-05-10T15:12:28;18.80;85.90
72936;DHT22;61085;48.804;9.228;2023-05-10T15:14:54;18.70;87.00
72936;DHT22;61085;48.804;9.228;2023-05-10T15:17:19;18.80;89.80
72936;DHT22;61085;48.804;9.228;2023-05-10T15:19:45;18.90;90.20
72936;DHT22;61085;48.804;9.228;2023-05-10T15:22:10;18.80;90.10
72936;DHT22;61085;48.804;9.228;2023-05-10T15:24:36;18.80;85.90
72936;DHT22;61085;48.804;9.228;2023-05-10T15:27:02;18.80;90.20
72936;DHT22;61085;48.804;9.228;2023-05-10T15:29:28;18.70;91.10
72936;DHT22;61085;48.804;9.228;2023-05-10T15:31:54;18.70;90.10
72936;DHT22;61085;48.804;9.228;2023-05-10T15:34:20;18.80;90.60
72936;DHT22;61085;48.804;9.228;2023-05-10T15:36:46;18.80;91.60
72936;DHT22;61085;48.804;9.228;2023-05-10T15:39:11;18.80;91.10
72936;DHT22;61085;48.804;9.228;2023-05-10T15:41:37;18.80;90.50
72936;DHT22;61085;48.804;9.228;2023-05-10T15:44:03;18.50;90.90
72936;DHT22;61085;48.804;9.228;2023-05-10T15:46:29;18.70;90.50
72936;DHT22;61085;48.804;9.228;2023-05-10T15:48:56;18.70;89.10
72936;DHT22;61085;48.804;9.228;2023-05-10T15:51:22;18.80;90.10
72936;DHT22;61085;48.804;9.228;2023-05-10T15:53:47;18.90;90.60
72936;DHT22;61085;48.804;9.228;2023-05-10T15:56:14;18.70;91.10
72936;DHT22;61085;48.804;9.228;2023-05-10T15:58:40;18.80;91.50
72936;DHT22;61085;48.804;9.228;2023-05-10T16:01:06;18.90;90.60
72936;DHT22;61085;48.804;9.228;2023-05-10T16:03:32;18.80;90.50